Time;durP1;ratioP1;P1;durP2;ratioP2;P2;SDS_P1;SDS_P2;PMS_P1;PMS_P2;Temp;Humidity;BMP_temperature;BMP_pressure;BME280_temperature;BME280_humidity;BME280_pressure;Samples;Min_cycle;Max_cycle;Signal;HPM_P1;HPM_P2
2021/10/11 00:01:33;;;;;;;3.35;1.75;;;13.90;87.10;;;;;;5049049;28;20477;-78
2021/10/11 00:03:59;;;;;;;4.53;1.90;;;13.90;87.10;;;;;;5049118;28;20033;-78
2021/10/11 00:06:24;;;;;;;4.97;2.10;;;13.90;87.10;;;;;;5033699;28;20022;-78
2021/10/11 00:08:50;;;;;;;4.05;1.80;;;13.90;87.00;;;;;;5033718;28;20489;-78
2021/10/11 00:11:15;;;;;;;2.17;1.60;;;14.00;87.10;;;;;;5049016;28;20071;-78
2021/10/11 00:13:41;;;;;;;3.45;1.42;;;13.90;87.10;;;;;;5033726;28;20029;-79
2021/10/11 00:16:07;;;;;;;2.90;1.55;;;14.00;87.10;;;;;;5048946;28;20029;-78
2021/10/11 00:18:32;;;;;;;3.80;1.60;;;14.00;87.00;;;;;;5048811;28;20116;-78
2021/10/11 00:20:58;;;;;;;5.25;1.50;;;13.90;87.00;;;;;;5048590;28;20161;-78
2021/10/11 00:23:23;;;;;;;4.00;1.50;;;13.90;87.10;;;;;;5048677;28;20028;-78
2021/10/11 00:25:49;;;;;;;5.00;1.40;;;13.90;87.10;;;;;;5048616;28;20014;-78
2021/10/11 00:28:14;;;;;;;3.65;1.50;;;13.90;87.10;;;;;;5048628;28;20056;-78
2021/10/11 00:30:40;;;;;;;4.18;1.50;;;13.90;87.20;;;;;;5033194;28;20107;-78
2021/10/11 00:33:06;;;;;;;5.25;1.30;;;13.80;87.20;;;;;;5048529;28;20386;-78
2021/10/11 00:35:32;;;;;;;5.25;1.33;;;13.80;87.30;;;;;;5048576;28;20029;-78
2021/10/11 00:37:58;;;;;;;3.83;1.50;;;13.80;87.30;;;;;;5048438;28;20025;-78
2021/10/11 00:40:24;;;;;;;2.97;1.10;;;13.70;87.40;;;;;;5048426;28;20017;-78
2021/10/11 00:42:50;;;;;;;4.35;1.45;;;13.70;87.50;;;;;;5048460;28;20056;-78
2021/10/11 00:45:15;;;;;;;4.95;1.60;;;13.70;87.60;;;;;;5032985;28;20057;-78
2021/10/11 00:47:41;;;;;;;5.78;1.98;;;13.70;87.60;;;;;;5048396;28;20533;-78
2021/10/11 00:50:07;;;;;;;3.63;1.45;;;13.60;87.60;;;;;;5047722;28;20397;-78
2021/10/11 00:52:33;;;;;;;5.78;1.42;;;13.60;87.70;;;;;;5048122;28;20486;-78
2021/10/11 00:55:00;;;;;;;4.18;1.60;;;13.60;87.80;;;;;;5048101;28;20021;-77
2021/10/11 00:57:25;;;;;;;5.95;1.60;;;13.50;87.80;;;;;;5048007;28;20021;-77
2021/10/11 00:59:51;;;;;;;4.97;1.50;;;13.50;87.80;;;;;;5047919;28;20495;-77
2021/10/11 01:02:17;;;;;;;3.13;1.65;;;13.50;87.80;;;;;;5048001;28;20018;-77
2021/10/11 01:04:42;;;;;;;3.08;1.50;;;13.50;87.80;;;;;;5032947;28;20052;-78
2021/10/11 01:07:08;;;;;;;5.72;1.70;;;13.50;87.80;;;;;;5032778;28;20056;-78
2021/10/11 01:09:34;;;;;;;3.75;1.70;;;13.60;87.80;;;;;;5048169;28;20481;-78
2021/10/11 01:12:00;;;;;;;3.28;1.70;;;13.50;87.80;;;;;;5032722;28;20112;-77
2021/10/11 01:14:26;;;;;;;4.03;1.60;;;13.50;87.70;;;;;;5048014;28;20481;-77
2021/10/11 01:16:51;;;;;;;3.30;1.60;;;13.60;87.80;;;;;;5047882;28;20032;-77
2021/10/11 01:19:17;;;;;;;3.58;1.50;;;13.60;87.80;;;;;;5047618;28;20053;-77
2021/10/11 01:21:43;;;;;;;4.53;1.48;;;13.60;87.70;;;;;;5047954;28;20100;-77
2021/10/11 01:24:09;;;;;;;4.40;1.70;;;13.60;87.70;;;;;;5047777;28;20040;-77
2021/10/11 01:26:40;;;;;;;5.97;1.60;;;13.60;87.70;;;;;;5047908;28;20017;-78
2021/10/11 01:29:10;;;;;;;4.30;1.80;;;13.60;87.80;;;;;;5047813;28;20045;-78
2021/10/11 01:31:36;;;;;;;3.72;1.50;;;13.50;87.70;;;;;;5032751;28;20022;-78
2021/10/11 01:34:03;;;;;;;5.20;1.52;;;13.60;87.80;;;;;;5047932;28;20393;-78
2021/10/11 01:36:29;;;;;;;3.58;1.60;;;13.50;87.80;;;;;;5047876;28;20072;-78
2021/10/11 01:38:57;;;;;;;3.55;1.30;;;13.50;87.70;;;;;;5032733;28;20030;-78
2021/10/11 01:41:23;;;;;;;6.60;1.55;;;13.60;87.70;;;;;;5047764;28;20038;-78
2021/10/11 01:43:49;;;;;;;5.13;1.80;;;13.60;87.60;;;;;;5047874;28;20528;-78
2021/10/11 01:46:16;;;;;;;3.85;1.50;;;13.60;87.60;;;;;;5047669;28;20021;-78
2021/10/11 01:48:41;;;;;;;5.00;1.95;;;13.60;87.60;;;;;;5047595;28;20044;-78
2021/10/11 01:51:07;;;;;;;6.55;1.98;;;13.60;87.60;;;;;;5047510;28;20025;-78
2021/10/11 01:53:33;;;;;;;5.35;1.73;;;13.50;87.70;;;;;;5032362;28;20064;-78
2021/10/11 01:55:59;;;;;;;4.43;1.70;;;13.40;87.70;;;;;;5044895;28;20507;-78
2021/10/11 01:58:24;;;;;;;3.40;1.88;;;13.40;88.50;;;;;;5047824;28;20462;-78
2021/10/11 02:00:50;;;;;;;5.25;1.73;;;13.30;88.00;;;;;;5047680;28;20021;-78
2021/10/11 02:03:16;;;;;;;4.15;1.60;;;13.30;88.10;;;;;;5050462;28;20032;-78
2021/10/11 02:05:41;;;;;;;6.18;1.98;;;13.20;88.10;;;;;;5051597;28;20020;-78
2021/10/11 02:08:07;;;;;;;8.18;2.00;;;13.20;88.20;;;;;;5051573;28;20026;-78
2021/10/11 02:10:32;;;;;;;4.60;1.63;;;13.10;88.30;;;;;;5051653;28;20112;-79
2021/10/11 02:12:58;;;;;;;6.78;1.50;;;13.10;88.30;;;;;;5051613;28;20488;-78
2021/10/11 02:15:24;;;;;;;5.70;1.73;;;13.10;88.40;;;;;;5051325;28;20021;-78
2021/10/11 02:17:50;;;;;;;2.90;1.63;;;13.00;88.40;;;;;;5051811;28;20104;-78
2021/10/11 02:20:15;;;;;;;5.20;1.73;;;13.00;88.50;;;;;;5036115;28;20494;-78
2021/10/11 02:22:41;;;;;;;4.93;1.50;;;13.00;88.60;;;;;;5051864;28;20453;-78
2021/10/11 02:25:07;;;;;;;4.68;1.70;;;12.90;88.50;;;;;;5036924;28;20064;-77
2021/10/11 02:27:33;;;;;;;4.40;1.70;;;12.90;88.50;;;;;;5052244;28;20026;-78
2021/10/11 02:29:59;;;;;;;6.38;1.60;;;12.90;88.60;;;;;;5052881;28;20079;-78
2021/10/11 02:32:26;;;;;;;4.63;1.50;;;12.80;88.60;;;;;;5052636;28;20017;-78
2021/10/11 02:34:51;;;;;;;3.10;1.50;;;12.80;88.60;;;;;;5053153;28;20066;-79
2021/10/11 02:37:17;;;;;;;4.55;1.70;;;12.80;89.20;;;;;;5039075;28;20030;-77
2021/10/11 02:39:42;;;;;;;8.07;1.80;;;12.80;88.60;;;;;;5039688;28;20104;-79
2021/10/11 02:42:08;;;;;;;6.55;1.70;;;12.70;88.60;;;;;;5060397;28;20028;-78
2021/10/11 02:44:34;;;;;;;6.13;1.70;;;12.70;88.60;;;;;;5061347;28;20018;-78
2021/10/11 02:46:59;;;;;;;5.43;1.50;;;12.70;88.60;;;;;;5045434;28;20080;-78
2021/10/11 02:49:25;;;;;;;5.50;1.45;;;12.60;88.60;;;;;;5045114;28;20029;-78
2021/10/11 02:51:50;;;;;;;2.88;1.40;;;12.60;89.20;;;;;;5059796;28;20022;-77
2021/10/11 02:54:17;;;;;;;6.07;1.70;;;12.60;88.60;;;;;;5059747;28;20032;-78
2021/10/11 02:56:46;;;;;;;10.27;3.35;;;12.50;88.60;;;;;;5059952;28;20025;-78
2021/10/11 02:59:12;;;;;;;3.88;1.52;;;12.50;88.60;;;;;;5059380;28;20013;-78
2021/10/11 03:01:37;;;;;;;3.42;1.65;;;12.50;88.70;;;;;;5058632;28;20545;-77
2021/10/11 03:04:03;;;;;;;4.88;1.52;;;12.50;88.70;;;;;;5040905;28;20053;-77
2021/10/11 03:06:29;;;;;;;5.25;1.48;;;12.40;88.60;;;;;;5052676;28;20061;-77
2021/10/11 03:08:55;;;;;;;6.22;1.52;;;12.40;88.60;;;;;;5052131;28;20446;-78
2021/10/11 03:11:20;;;;;;;4.80;1.50;;;12.40;88.60;;;;;;5051789;28;20048;-78
2021/10/11 03:13:46;;;;;;;3.78;1.30;;;12.40;88.60;;;;;;5051087;28;20540;-78
2021/10/11 03:16:11;;;;;;;7.38;1.42;;;12.30;88.60;;;;;;5035438;28;20118;-78
2021/10/11 03:18:38;;;;;;;4.65;1.50;;;12.30;88.60;;;;;;5035460;28;20025;-77
2021/10/11 03:21:04;;;;;;;5.53;1.50;;;12.30;88.60;;;;;;5050249;28;20073;-78
2021/10/11 03:23:29;;;;;;;4.30;1.30;;;12.30;88.50;;;;;;5034788;28;20130;-77
2021/10/11 03:25:55;;;;;;;4.68;1.40;;;12.30;88.50;;;;;;5050273;28;20493;-78
2021/10/11 03:28:20;;;;;;;4.80;1.83;;;12.30;88.50;;;;;;5050055;28;20021;-78
2021/10/11 03:30:46;;;;;;;3.47;1.48;;;12.30;88.40;;;;;;5049843;28;20124;-78
2021/10/11 03:33:12;;;;;;;5.85;1.88;;;12.30;88.50;;;;;;5049931;28;20018;-78
2021/10/11 03:35:38;;;;;;;6.10;1.65;;;12.30;88.50;;;;;;5049872;28;20025;-78
2021/10/11 03:38:03;;;;;;;6.43;1.73;;;12.20;88.40;;;;;;5034464;28;20105;-78
2021/10/11 03:40:29;;;;;;;4.60;1.40;;;12.20;88.40;;;;;;5049743;28;20025;-78
2021/10/11 03:42:55;;;;;;;5.05;1.42;;;12.20;88.40;;;;;;5034431;28;20096;-78
2021/10/11 03:45:21;;;;;;;5.05;1.55;;;12.10;88.40;;;;;;5049637;28;20358;-78
2021/10/11 03:51:09;;;;;;;5.30;1.40;;;12.10;88.40;;;;;;5034334;28;20067;-78
2021/10/11 03:53:34;;;;;;;3.65;1.95;;;12.00;88.40;;;;;;5049565;28;20045;-78
2021/10/11 03:56:00;;;;;;;7.03;1.70;;;11.90;88.40;;;;;;5049735;28;20021;-78
2021/10/11 03:58:26;;;;;;;6.10;1.50;;;11.90;88.50;;;;;;5049524;28;20022;-78
2021/10/11 04:00:51;;;;;;;5.18;1.42;;;11.90;88.50;;;;;;5049633;28;20030;-78
2021/10/11 04:03:17;;;;;;;3.72;1.25;;;11.90;88.50;;;;;;5034101;28;20025;-78
2021/10/11 04:05:42;;;;;;;6.40;1.50;;;11.90;88.60;;;;;;5049507;28;20027;-78
2021/10/11 04:08:13;;;;;;;7.53;1.50;;;11.80;88.50;;;;;;5033964;28;20163;-77
2021/10/11 04:10:51;;;;;;;6.63;1.80;;;11.80;88.50;;;;;;5049796;28;20067;-78
2021/10/11 04:13:20;;;;;;;4.38;1.50;;;11.80;88.50;;;;;;5049097;28;20025;-78
2021/10/11 04:15:48;;;;;;;4.85;1.52;;;11.80;88.60;;;;;;5033785;28;20021;-78
2021/10/11 04:18:17;;;;;;;5.68;1.67;;;11.80;88.60;;;;;;5049064;28;20051;-78
2021/10/11 04:20:43;;;;;;;6.18;1.83;;;11.80;88.50;;;;;;5048824;28;20037;-78
2021/10/11 04:23:09;;;;;;;4.55;1.55;;;11.70;88.40;;;;;;5049009;28;20021;-78
2021/10/11 04:25:35;;;;;;;4.82;1.52;;;11.80;88.40;;;;;;5033097;28;20440;-79
2021/10/11 04:28:01;;;;;;;6.90;1.50;;;11.70;88.30;;;;;;5048880;28;20608;-78
2021/10/11 04:30:27;;;;;;;4.25;1.48;;;11.80;88.30;;;;;;5048780;28;20029;-79
2021/10/11 04:32:52;;;;;;;6.07;1.58;;;11.70;88.20;;;;;;5048840;28;20128;-78
2021/10/11 04:35:21;;;;;;;6.55;1.58;;;11.70;88.20;;;;;;5048707;28;20033;-78
2021/10/11 04:37:50;;;;;;;5.03;1.75;;;11.70;88.10;;;;;;5048757;28;20024;-78
2021/10/11 04:40:17;;;;;;;5.45;1.60;;;11.70;88.10;;;;;;5033202;28;20022;-78
2021/10/11 04:42:42;;;;;;;6.70;1.80;;;11.70;88.10;;;;;;5048509;28;20025;-79
2021/10/11 04:45:09;;;;;;;6.25;1.58;;;11.70;88.00;;;;;;5048332;28;20017;-78
2021/10/11 04:47:34;;;;;;;5.90;1.83;;;11.60;88.00;;;;;;5033091;28;20029;-78
2021/10/11 04:50:00;;;;;;;8.85;1.77;;;11.60;88.00;;;;;;5048430;28;20029;-79
2021/10/11 04:52:25;;;;;;;7.00;2.00;;;11.60;88.00;;;;;;5033185;28;20029;-78
2021/10/11 04:54:51;;;;;;;2.72;1.50;;;11.60;87.90;;;;;;5048593;28;20025;-78
2021/10/11 04:57:17;;;;;;;6.43;1.90;;;11.60;87.80;;;;;;5048382;28;20045;-78
2021/10/11 04:59:43;;;;;;;10.75;2.85;;;11.60;87.80;;;;;;5048242;28;20052;-78
2021/10/11 05:02:08;;;;;;;5.47;1.80;;;11.60;87.80;;;;;;5048315;28;20025;-78
2021/10/11 05:04:34;;;;;;;5.50;1.77;;;11.50;87.70;;;;;;5048335;28;20026;-78
2021/10/11 05:07:00;;;;;;;6.28;1.70;;;11.50;87.70;;;;;;5048302;28;20045;-78
2021/10/11 05:09:25;;;;;;;6.45;1.70;;;11.50;87.70;;;;;;5032838;28;20100;-79
2021/10/11 05:11:51;;;;;;;5.32;1.83;;;11.50;87.80;;;;;;5048237;28;20400;-78
2021/10/11 05:14:16;;;;;;;7.15;1.85;;;11.60;87.80;;;;;;5048172;28;20021;-78
2021/10/11 05:16:42;;;;;;;5.22;1.50;;;11.60;87.80;;;;;;5048068;28;20017;-79
2021/10/11 05:22:33;;;;;;;4.45;1.45;;;11.50;87.70;;;;;;5033152;28;20135;-78
2021/10/11 05:24:58;;;;;;;4.90;1.52;;;11.50;87.60;;;;;;5047977;28;20543;-78
2021/10/11 05:27:24;;;;;;;5.28;1.60;;;11.50;87.70;;;;;;5048128;28;20049;-79
2021/10/11 05:29:49;;;;;;;6.07;2.10;;;11.50;87.70;;;;;;5047968;28;20014;-79
2021/10/11 05:32:15;;;;;;;7.65;2.30;;;11.50;87.70;;;;;;5047936;28;20021;-79
2021/10/11 05:34:41;;;;;;;3.60;1.70;;;11.50;87.70;;;;;;5047755;28;20069;-79
2021/10/11 05:37:06;;;;;;;7.07;1.92;;;11.50;87.70;;;;;;5072879;28;20044;-79
2021/10/11 05:39:32;;;;;;;5.32;1.58;;;11.50;87.60;;;;;;5074480;28;20051;-79
2021/10/11 05:41:57;;;;;;;5.15;1.98;;;11.50;87.70;;;;;;5074669;28;20533;-79
2021/10/11 05:44:25;;;;;;;4.75;1.92;;;11.50;87.70;;;;;;5074595;28;20060;-79
2021/10/11 05:46:50;;;;;;;7.38;1.90;;;11.50;87.70;;;;;;5074901;28;20064;-82
2021/10/11 05:49:17;;;;;;;4.78;1.85;;;11.50;87.70;;;;;;5075597;28;20083;-78
2021/10/11 05:51:43;;;;;;;6.65;1.92;;;11.50;87.60;;;;;;5075608;28;20051;-81
2021/10/11 05:54:08;;;;;;;5.00;1.80;;;11.50;87.50;;;;;;5075568;28;20119;-82
2021/10/11 05:56:34;;;;;;;4.88;2.13;;;11.50;87.50;;;;;;5077774;28;20078;-80
2021/10/11 05:59:02;;;;;;;7.85;1.90;;;11.50;87.50;;;;;;5080562;28;20142;-84
2021/10/11 06:01:28;;;;;;;7.05;1.90;;;11.50;87.50;;;;;;5080357;28;20583;-80
2021/10/11 06:03:53;;;;;;;4.88;1.77;;;11.50;87.50;;;;;;5077900;28;20115;-80
2021/10/11 06:06:19;;;;;;;7.53;1.70;;;11.40;87.60;;;;;;5076039;28;20024;-78
2021/10/11 06:08:45;;;;;;;7.00;1.95;;;11.50;87.40;;;;;;5047571;28;20097;-79
2021/10/11 06:11:17;;;;;;;7.25;1.80;;;11.50;87.40;;;;;;5057488;28;20025;-77
2021/10/11 06:13:43;;;;;;;6.70;1.80;;;11.50;87.30;;;;;;5055656;28;20034;-86
2021/10/11 06:17:05;;;;;;;10.00;1.65;;;11.50;87.20;;;;;;5040345;28;20516;-82
2021/10/11 06:19:30;;;;;;;5.35;1.60;;;11.50;87.00;;;;;;5053869;28;20049;-86
2021/10/11 06:21:56;;;;;;;3.13;1.40;;;11.50;87.00;;;;;;5052472;28;20025;-80
2021/10/11 06:24:21;;;;;;;8.00;1.50;;;11.60;87.10;;;;;;5038625;28;20079;-81
2021/10/11 06:26:47;;;;;;;5.07;1.45;;;11.60;87.00;;;;;;5052947;28;20091;-79
2021/10/11 06:29:13;;;;;;;6.43;1.80;;;11.60;86.90;;;;;;5055148;28;20086;-80
2021/10/11 06:31:38;;;;;;;5.88;1.42;;;11.70;86.80;;;;;;5051829;28;20033;-77
2021/10/11 06:34:04;;;;;;;7.22;1.80;;;11.70;86.80;;;;;;5036106;28;20583;-78
2021/10/11 06:36:34;;;;;;;5.20;1.40;;;11.70;86.70;;;;;;5051187;28;20053;-78
2021/10/11 06:39:00;;;;;;;5.57;1.50;;;11.80;86.60;;;;;;5050938;28;20033;-78
2021/10/11 06:41:25;;;;;;;7.28;1.75;;;11.80;86.60;;;;;;5050797;28;20033;-77
2021/10/11 06:43:51;;;;;;;6.35;1.65;;;11.90;86.60;;;;;;5050612;28;20528;-78
2021/10/11 06:46:17;;;;;;;5.40;1.50;;;12.00;86.60;;;;;;5039852;28;20026;-80
2021/10/11 06:48:42;;;;;;;5.80;1.50;;;12.00;86.50;;;;;;5052347;28;20034;-80
2021/10/11 06:51:08;;;;;;;4.03;1.30;;;12.00;86.30;;;;;;5036261;28;20480;-78
2021/10/11 06:53:34;;;;;;;4.70;1.65;;;12.10;86.90;;;;;;5051490;28;20021;-80
2021/10/11 06:56:00;;;;;;;7.35;1.60;;;12.10;86.30;;;;;;5034830;28;20036;-76
2021/10/11 06:58:25;;;;;;;4.63;1.45;;;12.10;86.20;;;;;;5050508;28;20030;-77
2021/10/11 07:00:51;;;;;;;5.63;1.15;;;12.10;86.20;;;;;;5050387;28;20032;-76
2021/10/11 07:03:23;;;;;;;4.15;1.50;;;12.10;86.10;;;;;;5050423;28;20473;-76
2021/10/11 07:05:49;;;;;;;6.82;1.67;;;12.20;86.20;;;;;;5050415;28;20056;-76
2021/10/11 07:08:15;;;;;;;4.63;1.48;;;12.20;86.20;;;;;;5050537;28;20101;-74
2021/10/11 07:10:40;;;;;;;4.35;1.63;;;12.30;86.20;;;;;;5050307;28;20493;-75
2021/10/11 07:13:06;;;;;;;6.05;1.60;;;12.30;86.10;;;;;;5034921;28;20064;-74
2021/10/11 07:15:33;;;;;;;4.88;1.50;;;12.30;86.10;;;;;;5035411;28;20458;-73
2021/10/11 07:17:59;;;;;;;4.93;1.83;;;12.30;86.60;;;;;;5050072;28;20057;-74
2021/10/11 07:20:24;;;;;;;7.88;2.25;;;12.40;86.00;;;;;;5034538;28;20077;-74
2021/10/11 07:22:53;;;;;;;5.30;1.77;;;12.40;86.00;;;;;;5034732;28;20060;-73
2021/10/11 07:25:19;;;;;;;3.63;1.35;;;12.50;86.00;;;;;;5034722;28;20489;-78
2021/10/11 07:27:44;;;;;;;6.70;1.60;;;12.50;86.00;;;;;;5049981;28;20021;-77
2021/10/11 07:30:10;;;;;;;4.45;1.50;;;12.50;85.90;;;;;;5049925;28;20033;-76
2021/10/11 07:32:36;;;;;;;5.00;1.60;;;12.60;85.80;;;;;;5049828;28;20493;-74
2021/10/11 07:35:01;;;;;;;4.03;1.70;;;12.60;85.70;;;;;;5049783;28;20116;-75
2021/10/11 07:37:27;;;;;;;7.82;2.05;;;12.70;85.70;;;;;;5034288;28;20028;-74
2021/10/11 07:39:53;;;;;;;4.95;1.80;;;12.70;85.60;;;;;;5034425;28;20093;-76
2021/10/11 07:42:19;;;;;;;6.85;1.63;;;12.70;85.60;;;;;;5049506;28;20025;-75
2021/10/11 07:44:45;;;;;;;5.07;1.73;;;12.70;85.40;;;;;;5049252;28;20018;-75
2021/10/11 07:47:10;;;;;;;3.17;1.50;;;12.80;85.50;;;;;;5049216;28;20135;-75
2021/10/11 07:49:36;;;;;;;4.50;1.50;;;12.80;85.40;;;;;;5049438;28;20112;-76
2021/10/11 07:52:02;;;;;;;5.22;1.52;;;12.80;85.40;;;;;;5049374;28;20018;-75
2021/10/11 07:54:28;;;;;;;6.85;1.55;;;12.80;85.40;;;;;;5049356;28;20120;-76
2021/10/11 07:56:55;;;;;;;6.43;1.50;;;12.80;85.20;;;;;;5049398;28;20053;-76
2021/10/11 07:59:20;;;;;;;5.40;1.60;;;12.90;85.10;;;;;;5033080;28;20025;-76
2021/10/11 08:01:46;;;;;;;6.63;2.05;;;12.90;84.90;;;;;;5033677;28;20025;-74
2021/10/11 08:04:12;;;;;;;7.20;1.73;;;12.80;84.80;;;;;;5033871;28;20508;-76
2021/10/11 08:06:38;;;;;;;4.18;1.30;;;12.90;85.40;;;;;;5049168;28;20022;-78
2021/10/11 08:09:04;;;;;;;5.57;1.50;;;12.90;84.80;;;;;;5033940;28;20018;-79
2021/10/11 08:11:31;;;;;;;4.85;1.80;;;13.00;84.70;;;;;;5049188;28;20032;-79
2021/10/11 08:13:58;;;;;;;6.72;1.60;;;13.10;84.70;;;;;;5049654;28;20033;-77
2021/10/11 08:16:24;;;;;;;9.15;1.63;;;13.10;84.50;;;;;;5035367;28;20029;-78
2021/10/11 08:18:49;;;;;;;5.53;1.60;;;13.20;84.30;;;;;;5034220;28;20013;-79
2021/10/11 08:21:15;;;;;;;3.30;1.58;;;13.20;84.30;;;;;;5051770;28;20025;-78
2021/10/11 08:23:41;;;;;;;5.22;1.70;;;13.20;84.20;;;;;;5050811;28;20022;-78
2021/10/11 08:26:09;;;;;;;6.47;1.95;;;13.30;84.10;;;;;;5049284;28;20099;-80
2021/10/11 08:28:36;;;;;;;6.65;1.60;;;13.30;84.00;;;;;;5033567;28;20112;-80
2021/10/11 08:31:02;;;;;;;7.53;1.85;;;13.30;83.90;;;;;;5033837;28;20053;-79
2021/10/11 08:33:28;;;;;;;5.30;1.85;;;13.40;84.00;;;;;;5049558;28;20029;-79
2021/10/11 08:35:53;;;;;;;5.90;2.13;;;13.50;84.00;;;;;;5034529;28;20428;-78
2021/10/11 08:38:19;;;;;;;4.10;1.75;;;13.50;83.90;;;;;;5048837;28;20091;-78
2021/10/11 08:40:47;;;;;;;5.55;2.08;;;13.60;83.90;;;;;;5033610;28;20028;-79
2021/10/11 08:43:13;;;;;;;6.93;2.00;;;13.70;83.70;;;;;;5033335;28;20021;-83
2021/10/11 08:45:42;;;;;;;5.00;1.67;;;13.70;83.60;;;;;;5048693;28;20557;-78
2021/10/11 08:48:07;;;;;;;7.53;1.90;;;13.80;83.50;;;;;;5048463;28;20018;-78
2021/10/11 08:50:33;;;;;;;4.32;1.80;;;13.80;83.40;;;;;;5048417;28;20075;-80
2021/10/11 08:52:59;;;;;;;4.95;1.70;;;13.90;83.40;;;;;;5040008;28;20463;-80
2021/10/11 08:55:25;;;;;;;5.00;1.88;;;13.90;83.30;;;;;;5051188;28;20013;-79
2021/10/11 08:58:00;;;;;;;5.90;1.90;;;14.00;83.20;;;;;;5048551;28;20512;-79
2021/10/11 09:00:25;;;;;;;8.18;2.05;;;14.00;83.10;;;;;;5032975;28;20363;-80
2021/10/11 09:02:52;;;;;;;6.07;1.85;;;14.10;83.10;;;;;;5048523;28;20020;-80
2021/10/11 09:05:29;;;;;;;5.22;1.75;;;14.10;83.00;;;;;;5048270;28;20014;-78
2021/10/11 09:08:18;;;;;;;6.22;1.70;;;14.20;83.00;;;;;;5048163;28;20029;-79
2021/10/11 09:10:51;;;;;;;5.47;1.73;;;14.30;82.90;;;;;;5047821;28;20092;-78
2021/10/11 09:13:18;;;;;;;5.97;2.03;;;14.30;82.80;;;;;;5032895;28;20030;-79
2021/10/11 09:15:44;;;;;;;5.13;1.60;;;14.40;82.80;;;;;;5048066;28;20048;-79
2021/10/11 09:18:11;;;;;;;7.80;1.73;;;14.50;82.70;;;;;;5048131;28;20140;-79
2021/10/11 09:20:40;;;;;;;7.43;1.83;;;14.60;82.70;;;;;;5032394;28;20046;-78
2021/10/11 09:23:08;;;;;;;5.82;1.55;;;14.60;82.50;;;;;;5031855;28;20096;-78
2021/10/11 09:25:39;;;;;;;6.30;1.58;;;14.70;82.40;;;;;;5048072;28;20017;-80
2021/10/11 09:28:06;;;;;;;6.20;1.60;;;14.70;82.30;;;;;;5048028;28;20022;-80
2021/10/11 09:30:36;;;;;;;4.78;1.60;;;14.70;82.20;;;;;;5048026;28;20476;-80
2021/10/11 09:33:07;;;;;;;3.72;1.60;;;14.70;82.10;;;;;;5047971;28;20021;-81
2021/10/11 09:35:34;;;;;;;6.03;1.80;;;14.70;82.00;;;;;;5047748;28;20029;-81
2021/10/11 09:37:59;;;;;;;6.15;1.80;;;14.70;82.00;;;;;;5047885;28;20389;-78
2021/10/11 09:40:25;;;;;;;5.00;1.90;;;14.70;82.10;;;;;;5032844;28;20026;-79
2021/10/11 09:42:51;;;;;;;4.47;1.52;;;14.80;82.20;;;;;;5047714;28;20018;-79
2021/10/11 09:45:26;;;;;;;6.80;1.50;;;14.80;82.20;;;;;;5047869;28;20025;-79
2021/10/11 09:47:52;;;;;;;6.75;2.10;;;14.80;82.10;;;;;;5047950;28;20025;-79
2021/10/11 09:50:17;;;;;;;9.70;1.98;;;14.90;82.10;;;;;;5048018;28;20417;-79
2021/10/11 09:52:44;;;;;;;6.53;1.80;;;15.00;82.00;;;;;;5032678;28;20025;-77
2021/10/11 09:55:12;;;;;;;4.38;1.52;;;15.00;81.90;;;;;;5035402;28;20029;-79
2021/10/11 09:57:37;;;;;;;8.43;1.63;;;15.00;81.90;;;;;;5035450;28;20081;-78
2021/10/11 10:00:09;;;;;;;5.55;1.65;;;15.00;81.90;;;;;;5035831;28;20064;-78
2021/10/11 10:02:43;;;;;;;5.25;1.70;;;15.10;81.80;;;;;;5034990;28;20077;-77
2021/10/11 10:05:14;;;;;;;5.70;1.70;;;15.20;81.80;;;;;;5049912;28;20030;-78
2021/10/11 10:07:47;;;;;;;7.85;1.92;;;15.20;81.70;;;;;;5038347;28;20077;-79
2021/10/11 10:11:06;;;;;;;6.83;1.70;;;15.20;81.70;;;;;;5060689;28;20052;-81
2021/10/11 10:13:46;;;;;;;8.77;1.90;;;15.30;81.60;;;;;;5065601;28;20029;-80
2021/10/11 10:16:13;;;;;;;6.32;1.90;;;15.30;81.40;;;;;;5067894;28;20033;-81
2021/10/11 10:18:41;;;;;;;3.72;1.80;;;15.30;81.40;;;;;;5051294;28;20060;-80
2021/10/11 10:21:10;;;;;;;6.50;1.80;;;15.40;81.50;;;;;;5066339;28;20034;-81
2021/10/11 10:23:38;;;;;;;5.97;2.20;;;15.40;81.50;;;;;;5061198;28;20026;-78
2021/10/11 10:26:06;;;;;;;4.68;1.95;;;15.50;81.50;;;;;;5045329;28;20100;-78
2021/10/11 10:28:54;;;;;;;7.43;1.70;;;15.60;81.40;;;;;;5059790;28;20025;-79
2021/10/11 10:31:35;;;;;;;8.55;2.13;;;15.60;81.10;;;;;;5054707;28;20374;-75
2021/10/11 10:34:13;;;;;;;6.18;1.52;;;15.60;81.20;;;;;;5036698;28;20036;-76
2021/10/11 10:36:42;;;;;;;4.00;1.35;;;15.70;81.30;;;;;;5039697;28;20629;-78
2021/10/11 10:39:10;;;;;;;5.30;1.55;;;15.70;81.20;;;;;;5055636;28;20536;-77
2021/10/11 10:41:38;;;;;;;8.07;1.85;;;15.80;81.20;;;;;;5055001;28;20083;-76
2021/10/11 10:44:11;;;;;;;6.03;1.60;;;15.80;81.10;;;;;;5052084;28;20115;-80
2021/10/11 10:46:52;;;;;;;6.63;1.80;;;15.90;80.70;;;;;;5051691;28;20067;-80
2021/10/11 10:49:37;;;;;;;5.93;1.83;;;16.00;80.70;;;;;;5051993;28;20509;-80
2021/10/11 10:52:27;;;;;;;5.80;2.00;;;16.00;79.80;;;;;;5051308;28;20025;-80
2021/10/11 10:54:55;;;;;;;3.67;1.27;;;16.10;79.70;;;;;;5050988;28;20029;-80
2021/10/11 10:57:29;;;;;;;5.68;1.38;;;16.10;79.80;;;;;;5051043;28;20027;-80
2021/10/11 11:00:00;;;;;;;6.75;1.85;;;16.20;79.60;;;;;;5050927;28;20029;-80
2021/10/11 11:02:26;;;;;;;5.00;1.60;;;16.20;79.40;;;;;;5050723;28;20367;-80
2021/10/11 11:05:05;;;;;;;8.18;1.77;;;16.10;79.40;;;;;;5035018;28;20036;-80
2021/10/11 11:07:37;;;;;;;5.85;1.63;;;16.10;79.10;;;;;;5050471;28;20021;-80
2021/10/11 11:10:30;;;;;;;6.32;1.45;;;16.10;79.00;;;;;;5050507;28;20516;-79
2021/10/11 11:12:58;;;;;;;5.65;1.38;;;16.20;78.90;;;;;;5050532;28;20552;-79
2021/10/11 11:15:34;;;;;;;6.47;1.52;;;16.20;78.80;;;;;;5035144;28;20563;-80
2021/10/11 11:18:13;;;;;;;5.03;1.30;;;16.20;78.60;;;;;;5050498;28;20512;-80
2021/10/11 11:20:41;;;;;;;3.83;1.08;;;16.30;78.30;;;;;;5034836;28;20057;-81
2021/10/11 11:26:29;;;;;;;3.47;1.00;;;16.60;77.40;;;;;;5035036;28;20033;-80
2021/10/11 11:28:55;;;;;;;3.08;1.20;;;16.70;76.80;;;;;;5050153;28;20029;-80
2021/10/11 11:31:21;;;;;;;5.88;1.10;;;16.80;76.20;;;;;;5050097;28;20490;-80
2021/10/11 11:33:52;;;;;;;6.15;1.38;;;16.90;76.10;;;;;;5049731;28;20029;-82
2021/10/11 11:36:18;;;;;;;6.60;1.33;;;17.00;75.60;;;;;;5050089;28;20370;-82
2021/10/11 11:38:44;;;;;;;4.75;1.10;;;17.00;74.90;;;;;;5049905;28;20116;-79
2021/10/11 11:41:10;;;;;;;4.15;1.00;;;17.10;74.50;;;;;;5034481;28;20029;-80
2021/10/11 11:43:38;;;;;;;6.30;1.15;;;17.10;74.10;;;;;;5049909;28;20029;-80
2021/10/11 11:46:06;;;;;;;4.30;1.10;;;17.10;73.60;;;;;;5050027;28;20104;-80
2021/10/11 11:48:36;;;;;;;5.20;1.15;;;17.10;72.90;;;;;;5049677;28;20496;-80
2021/10/11 11:51:06;;;;;;;4.53;1.00;;;17.10;72.60;;;;;;5049858;28;20037;-80
2021/10/11 11:53:36;;;;;;;5.43;1.05;;;17.20;72.30;;;;;;5049659;28;20029;-79
2021/10/11 11:56:04;;;;;;;3.60;0.80;;;17.20;72.00;;;;;;5049537;28;20150;-81
2021/10/11 11:58:35;;;;;;;4.43;1.33;;;17.20;71.80;;;;;;5049448;28;20029;-81
2021/10/11 12:01:17;;;;;;;3.78;1.00;;;17.30;71.40;;;;;;5034234;28;20381;-80
2021/10/11 12:03:52;;;;;;;5.57;1.15;;;17.20;70.70;;;;;;5034048;28;20096;-80
2021/10/11 12:06:24;;;;;;;5.30;1.10;;;17.20;70.80;;;;;;5049513;28;20030;-81
2021/10/11 12:08:50;;;;;;;3.03;0.80;;;17.20;70.60;;;;;;5033561;28;20539;-81
2021/10/11 12:11:19;;;;;;;4.22;1.10;;;17.20;70.70;;;;;;5033872;28;20134;-80
2021/10/11 12:13:46;;;;;;;5.22;1.65;;;17.20;70.80;;;;;;5049055;28;20112;-80
2021/10/11 12:16:15;;;;;;;4.50;1.10;;;17.20;70.90;;;;;;5049058;28;20057;-80
2021/10/11 12:18:41;;;;;;;4.78;1.05;;;17.30;71.10;;;;;;5048698;28;20037;-79
2021/10/11 12:21:18;;;;;;;3.70;0.82;;;17.30;71.20;;;;;;5048846;28;20092;-79
2021/10/11 12:23:44;;;;;;;4.50;0.98;;;17.20;70.70;;;;;;5033581;28;20036;-81
2021/10/11 12:26:10;;;;;;;4.53;0.98;;;17.20;70.50;;;;;;5048741;28;20022;-78
2021/10/11 12:28:47;;;;;;;3.47;0.80;;;17.00;70.20;;;;;;5048700;28;20021;-78
2021/10/11 12:31:18;;;;;;;3.00;1.02;;;16.90;70.10;;;;;;5048737;28;20071;-78
2021/10/11 12:33:44;;;;;;;6.93;0.98;;;16.80;70.50;;;;;;5049045;28;20032;-78
2021/10/11 12:36:12;;;;;;;4.13;1.00;;;16.70;70.10;;;;;;5033269;28;20525;-78
2021/10/11 12:38:40;;;;;;;5.22;1.00;;;16.60;70.20;;;;;;5048646;28;20037;-78
2021/10/11 12:41:10;;;;;;;5.47;1.27;;;16.50;70.20;;;;;;5048599;28;20440;-77
2021/10/11 12:43:36;;;;;;;3.55;1.00;;;16.40;71.10;;;;;;5048680;28;20033;-77
2021/10/11 12:46:09;;;;;;;5.57;1.25;;;16.40;70.50;;;;;;5047940;28;20049;-77
2021/10/11 12:48:47;;;;;;;4.80;1.15;;;16.30;70.80;;;;;;5033395;28;20026;-77
2021/10/11 12:51:30;;;;;;;5.13;1.00;;;16.30;70.70;;;;;;5033203;28;20076;-77
2021/10/11 12:54:14;;;;;;;2.20;0.80;;;16.20;71.00;;;;;;5048431;28;20025;-78
2021/10/11 12:56:48;;;;;;;2.63;1.00;;;16.10;71.30;;;;;;5048382;28;20037;-78
2021/10/11 12:59:14;;;;;;;2.00;0.60;;;16.10;71.60;;;;;;5048318;28;20025;-79